createdAt,value
2023-11-08T00:02:03.366Z,66.08
2023-11-08T00:04:30.062Z,66.10
2023-11-08T00:06:56.942Z,66.08
2023-11-08T00:09:23.649Z,65.95
2023-11-08T00:11:50.617Z,66.06
2023-11-08T00:14:17.205Z,65.98
2023-11-08T00:16:44.112Z,65.99
2023-11-08T00:19:10.755Z,66.13
2023-11-08T00:21:38.590Z,66.26
2023-11-08T00:24:05.527Z,66.27
2023-11-08T00:26:32.127Z,66.30
2023-11-08T00:28:58.686Z,66.35
2023-11-08T00:31:25.285Z,66.23
2023-11-08T00:33:53.941Z,66.23
2023-11-08T00:36:21.839Z,66.37
2023-11-08T00:38:48.597Z,66.25
2023-11-08T00:41:15.563Z,66.37
2023-11-08T00:43:42.986Z,66.34
2023-11-08T00:46:09.753Z,66.31
2023-11-08T00:48:37.486Z,66.55
2023-11-08T00:51:04.783Z,66.44
2023-11-08T00:53:32.307Z,66.53
2023-11-08T00:55:59.162Z,66.57
2023-11-08T00:58:25.760Z,66.65
2023-11-08T01:00:52.507Z,66.58
2023-11-08T01:03:19.259Z,66.53
2023-11-08T01:05:45.946Z,66.63
2023-11-08T01:08:15.464Z,66.79
2023-11-08T01:10:42.055Z,66.83
2023-11-08T01:13:09.088Z,66.81
2023-11-08T01:15:37.882Z,66.88
2023-11-08T01:18:06.793Z,66.89
2023-11-08T01:20:33.436Z,66.88
2023-11-08T01:22:59.967Z,66.71
2023-11-08T01:25:27.108Z,66.76
2023-11-08T01:27:53.630Z,66.57
2023-11-08T01:30:20.217Z,66.69
2023-11-08T01:32:47.137Z,66.84
2023-11-08T01:35:13.924Z,66.90
2023-11-08T01:37:40.820Z,66.94
2023-11-08T01:40:11.284Z,66.98
2023-11-08T01:42:38.071Z,66.90
2023-11-08T01:45:06.065Z,66.96
2023-11-08T01:47:36.750Z,66.96
2023-11-08T01:50:07.702Z,67.04
2023-11-08T01:52:35.528Z,67.11
2023-11-08T01:55:03.460Z,66.97
2023-11-08T01:57:31.351Z,67.17
2023-11-08T01:59:59.137Z,67.16
2023-11-08T02:02:26.185Z,67.21
2023-11-08T02:04:56.651Z,67.23
2023-11-08T02:07:23.880Z,67.24
2023-11-08T02:09:50.695Z,67.45
2023-11-08T02:12:17.616Z,67.56
2023-11-08T02:15:04.820Z,67.37
2023-11-08T02:17:31.462Z,67.38
2023-11-08T02:19:58.056Z,67.40
2023-11-08T02:22:25.055Z,67.31
2023-11-08T02:24:52.219Z,67.48
2023-11-08T02:27:18.960Z,67.44
2023-11-08T02:29:45.744Z,67.53
2023-11-08T02:32:13.574Z,67.55
2023-11-08T02:34:40.273Z,67.58
2023-11-08T02:37:06.930Z,67.59
2023-11-08T02:39:33.588Z,67.69
2023-11-08T02:42:00.179Z,67.66
2023-11-08T02:44:27.482Z,67.68
2023-11-08T02:46:54.258Z,67.46
2023-11-08T02:49:20.905Z,67.45
2023-11-08T02:51:48.098Z,67.33
2023-11-08T02:54:14.759Z,67.39
2023-11-08T02:56:42.835Z,67.45
2023-11-08T02:59:09.949Z,67.40
2023-11-08T03:01:36.950Z,67.50
2023-11-08T03:04:03.572Z,67.53
2023-11-08T03:06:30.268Z,67.61
2023-11-08T03:08:56.816Z,67.52
2023-11-08T03:11:24.893Z,67.56
2023-11-08T03:13:51.754Z,67.57
2023-11-08T03:16:44.292Z,67.59
2023-11-08T03:19:11.523Z,67.85
2023-11-08T03:21:38.583Z,67.77
2023-11-08T03:24:05.850Z,67.73
2023-11-08T03:26:34.414Z,67.70
2023-11-08T03:29:00.998Z,67.82
2023-11-08T03:31:28.637Z,67.94
2023-11-08T03:33:57.630Z,67.98
2023-11-08T03:36:27.341Z,68.12
2023-11-08T03:38:54.324Z,68.25
2023-11-08T03:41:22.516Z,68.15
2023-11-08T03:43:49.044Z,68.05
2023-11-08T03:46:15.595Z,68.23
2023-11-08T03:48:42.209Z,68.22
2023-11-08T03:51:09.773Z,68.28
2023-11-08T03:53:36.473Z,68.23
2023-11-08T03:56:03.297Z,68.15
2023-11-08T03:58:29.977Z,68.14
2023-11-08T04:00:56.768Z,68.15
2023-11-08T04:03:23.379Z,68.13
2023-11-08T04:05:49.944Z,68.18
2023-11-08T04:08:16.561Z,68.26
2023-11-08T04:10:43.297Z,68.17
2023-11-08T04:13:09.996Z,68.11
2023-11-08T04:15:36.584Z,68.17
2023-11-08T04:18:03.176Z,68.21
2023-11-08T04:20:30.354Z,68.22
2023-11-08T04:22:56.884Z,68.32
2023-11-08T04:25:23.444Z,68.34
2023-11-08T04:27:50.156Z,68.40
2023-11-08T04:30:16.917Z,68.44
2023-11-08T04:32:44.893Z,68.40
2023-11-08T04:35:12.310Z,68.49
2023-11-08T04:37:40.840Z,68.58
2023-11-08T04:40:08.655Z,68.59
2023-11-08T04:42:35.504Z,68.44
2023-11-08T04:45:02.368Z,68.47
2023-11-08T04:47:29.083Z,68.41
2023-11-08T04:49:55.969Z,68.49
2023-11-08T04:52:22.813Z,68.59
2023-11-08T04:54:55.009Z,68.58
2023-11-08T04:57:22.438Z,68.44
2023-11-08T04:59:50.520Z,68.54
2023-11-08T05:02:18.668Z,68.55
2023-11-08T05:04:49.297Z,68.37
2023-11-08T05:07:19.465Z,68.37
2023-11-08T05:09:46.891Z,68.47
2023-11-08T05:12:13.627Z,68.42
2023-11-08T05:14:40.377Z,68.55
2023-11-08T05:17:07.393Z,68.67
2023-11-08T05:19:34.308Z,68.72
2023-11-08T05:22:01.220Z,68.72
2023-11-08T05:24:29.005Z,68.75
2023-11-08T05:26:56.239Z,68.78
2023-11-08T05:29:22.971Z,68.75
2023-11-08T05:31:52.784Z,68.69
2023-11-08T05:34:21.480Z,68.75
2023-11-08T05:36:48.379Z,68.77
2023-11-08T05:39:23.406Z,68.83
2023-11-08T05:41:54.839Z,68.90
2023-11-08T05:44:21.699Z,69.03
2023-11-08T05:46:50.514Z,69.16
2023-11-08T05:49:17.662Z,69.14
2023-11-08T05:51:44.274Z,69.06
2023-11-08T05:54:11.007Z,68.99
2023-11-08T05:56:37.573Z,69.04
2023-11-08T05:59:04.218Z,69.12
2023-11-08T06:01:30.740Z,68.94
2023-11-08T06:03:57.389Z,68.86
2023-11-08T06:06:24.651Z,68.79
2023-11-08T06:08:51.431Z,68.84
2023-11-08T06:11:18.073Z,68.91
2023-11-08T06:13:45.139Z,68.95
2023-11-08T06:16:12.763Z,68.91
2023-11-08T06:18:40.201Z,68.97
2023-11-08T06:21:07.057Z,68.98
2023-11-08T06:23:33.615Z,69.05
2023-11-08T06:26:00.210Z,69.01
2023-11-08T06:28:26.768Z,69.08
2023-11-08T06:30:55.119Z,69.36
2023-11-08T06:33:22.222Z,69.27
2023-11-08T06:35:48.994Z,69.39
2023-11-08T06:38:15.620Z,69.34
2023-11-08T06:40:42.267Z,69.46
2023-11-08T06:43:09.269Z,69.37
2023-11-08T06:45:35.920Z,69.26
2023-11-08T06:48:03.043Z,69.41
2023-11-08T06:50:29.864Z,69.48
2023-11-08T06:52:56.468Z,69.56
2023-11-08T06:55:32.220Z,69.47
2023-11-08T06:58:06.213Z,69.40
2023-11-08T07:00:35.747Z,69.41
2023-11-08T07:03:04.533Z,69.44
2023-11-08T07:05:38.183Z,69.42
2023-11-08T07:08:08.875Z,69.58
2023-11-08T07:10:35.861Z,69.61
2023-11-08T07:13:02.561Z,69.64
2023-11-08T07:15:29.575Z,69.61
2023-11-08T07:17:56.456Z,69.66
2023-11-08T07:20:23.645Z,69.70
2023-11-08T07:22:50.302Z,69.88
2023-11-08T07:25:16.891Z,70.98
2023-11-08T07:27:43.527Z,72.14
2023-11-08T07:30:15.843Z,72.44
2023-11-08T07:32:42.602Z,71.91
2023-11-08T07:35:10.070Z,71.66
2023-11-08T07:37:40.956Z,71.44
2023-11-08T07:40:09.181Z,70.93
2023-11-08T07:42:39.249Z,70.21
2023-11-08T07:45:06.779Z,69.82
2023-11-08T07:47:33.949Z,69.36
2023-11-08T07:50:01.162Z,68.42
2023-11-08T07:52:29.121Z,67.22
2023-11-08T07:54:55.902Z,65.79
2023-11-08T07:57:22.629Z,64.93
2023-11-08T07:59:50.483Z,64.91
2023-11-08T08:02:17.896Z,65.77
2023-11-08T08:04:46.548Z,65.14
2023-11-08T08:07:13.302Z,64.53
2023-11-08T08:09:39.919Z,64.45
2023-11-08T08:12:08.496Z,64.38
2023-11-08T08:14:36.574Z,64.36
2023-11-08T08:17:06.247Z,64.73
2023-11-08T08:19:33.521Z,65.09
2023-11-08T08:22:02.508Z,65.47
2023-11-08T08:24:29.527Z,65.59
2023-11-08T08:26:57.770Z,65.94
2023-11-08T08:29:25.654Z,66.35
2023-11-08T08:31:52.478Z,66.52
2023-11-08T08:34:28.363Z,66.46
2023-11-08T08:36:58.349Z,66.51
2023-11-08T08:39:29.306Z,66.26
2023-11-08T08:41:57.038Z,66.07
2023-11-08T08:44:25.200Z,65.93
2023-11-08T08:46:52.685Z,65.74
2023-11-08T08:49:22.103Z,65.53
2023-11-08T08:51:50.478Z,65.41
2023-11-08T08:54:18.031Z,65.63
2023-11-08T08:56:48.583Z,65.92
2023-11-08T08:59:15.221Z,65.95
2023-11-08T09:01:41.855Z,66.21
2023-11-08T09:04:10.216Z,66.10
2023-11-08T09:06:37.063Z,66.34
2023-11-08T09:09:03.885Z,66.31
2023-11-08T09:11:30.535Z,66.18
2023-11-08T09:13:57.167Z,66.39
2023-11-08T09:16:23.793Z,66.10
2023-11-08T09:18:51.085Z,66.26
2023-11-08T09:21:17.944Z,66.20
2023-11-08T09:23:44.700Z,66.14
2023-11-08T09:26:12.163Z,65.70
2023-11-08T09:28:38.796Z,65.92
2023-11-08T09:31:05.566Z,65.89
2023-11-08T09:33:32.239Z,65.96
2023-11-08T09:35:58.923Z,66.10
2023-11-08T09:38:29.169Z,66.08
2023-11-08T09:40:56.087Z,66.33
2023-11-08T09:43:26.681Z,66.32
2023-11-08T09:45:54.865Z,66.07
2023-11-08T09:48:23.033Z,66.11
2023-11-08T09:50:50.049Z,66.40
2023-11-08T09:53:17.329Z,66.25
2023-11-08T09:55:46.308Z,66.17
2023-11-08T09:58:15.519Z,66.03
2023-11-08T10:00:42.921Z,65.86
2023-11-08T10:03:10.484Z,65.97
2023-11-08T10:05:39.075Z,65.76
2023-11-08T10:08:10.395Z,65.97
2023-11-08T10:10:38.371Z,65.84
2023-11-08T10:13:07.706Z,65.75
2023-11-08T10:15:35.051Z,65.75
2023-11-08T10:19:32.194Z,65.81
2023-11-08T10:21:02.519Z,65.70
2023-11-08T10:23:31.936Z,65.73
2023-11-08T10:26:17.074Z,65.84
2023-11-08T10:29:06.424Z,65.89
2023-11-08T10:31:34.923Z,66.10
2023-11-08T10:34:03.693Z,66.07
2023-11-08T10:36:34.627Z,65.95
2023-11-08T10:39:02.509Z,65.76
2023-11-08T10:41:30.475Z,65.53
2023-11-08T10:44:07.555Z,65.51
2023-11-08T10:46:35.167Z,65.50
2023-11-08T10:49:03.574Z,65.55
2023-11-08T10:51:31.591Z,65.74
2023-11-08T10:53:58.523Z,66.18
2023-11-08T10:56:28.509Z,66.40
2023-11-08T10:58:59.208Z,65.92
2023-11-08T11:01:31.133Z,65.80
2023-11-08T11:04:06.154Z,65.68
2023-11-08T11:06:35.640Z,65.79
2023-11-08T11:09:12.421Z,65.50
2023-11-08T11:11:43.673Z,65.36
2023-11-08T11:14:27.717Z,65.82
2023-11-08T11:17:03.839Z,65.90
2023-11-08T11:19:33.533Z,65.71
2023-11-08T11:22:08.160Z,65.56
2023-11-08T11:24:40.648Z,65.35
2023-11-08T11:27:08.842Z,65.47
2023-11-08T11:29:35.760Z,65.26
2023-11-08T11:32:05.174Z,65.27
2023-11-08T11:34:35.090Z,65.49
2023-11-08T11:37:02.102Z,65.74
2023-11-08T11:39:33.125Z,65.99
2023-11-08T11:42:17.456Z,65.91
2023-11-08T11:44:56.642Z,65.71
2023-11-08T11:47:31.619Z,65.93
2023-11-08T11:50:08.630Z,65.83
2023-11-08T11:52:37.256Z,66.00
2023-11-08T11:55:09.892Z,65.65
2023-11-08T11:57:37.920Z,65.65
2023-11-08T12:00:06.867Z,65.83
2023-11-08T12:02:37.239Z,65.76
2023-11-08T12:05:06.658Z,65.63
2023-11-08T12:07:35.172Z,65.62
2023-11-08T12:10:12.550Z,65.74
2023-11-08T12:12:44.396Z,65.65
2023-11-08T12:15:22.313Z,65.71
2023-11-08T12:17:54.478Z,65.56
2023-11-08T12:20:23.088Z,65.62
2023-11-08T12:22:51.925Z,65.76
2023-11-08T12:25:22.717Z,65.61
2023-11-08T12:27:57.948Z,65.89
2023-11-08T12:30:26.481Z,65.80
2023-11-08T12:32:57.525Z,65.75
2023-11-08T12:35:24.361Z,65.70
2023-11-08T12:37:51.107Z,65.91
2023-11-08T12:40:23.330Z,66.57
2023-11-08T12:42:55.075Z,66.43
2023-11-08T12:46:34.489Z,66.12
2023-11-08T12:48:29.414Z,66.06
2023-11-08T12:51:01.404Z,66.05
2023-11-08T12:53:28.599Z,65.87
2023-11-08T12:56:00.587Z,66.18
2023-11-08T12:58:31.997Z,66.28
2023-11-08T13:00:59.708Z,66.14
2023-11-08T13:03:27.751Z,65.62
2023-11-08T13:05:55.616Z,65.47
2023-11-08T13:08:28.664Z,65.54
2023-11-08T13:10:59.096Z,65.22
2023-11-08T13:13:28.886Z,64.97
2023-11-08T13:15:56.383Z,65.06
2023-11-08T13:18:24.315Z,65.32
2023-11-08T13:20:51.084Z,65.38
2023-11-08T13:23:58.246Z,65.19
2023-11-08T13:26:04.647Z,65.31
2023-11-08T13:28:32.541Z,65.30
2023-11-08T13:30:59.377Z,65.25
2023-11-08T13:33:32.786Z,65.41
2023-11-08T13:36:02.793Z,65.24
2023-11-08T13:38:30.707Z,65.40
2023-11-08T13:40:57.853Z,65.65
2023-11-08T13:43:24.972Z,65.52
2023-11-08T13:45:51.647Z,65.47
2023-11-08T13:48:18.401Z,65.51
2023-11-08T13:50:44.976Z,65.37
2023-11-08T13:53:11.617Z,65.31
2023-11-08T13:55:38.229Z,65.36
2023-11-08T13:58:08.192Z,65.39
2023-11-08T14:00:50.886Z,65.37
2023-11-08T14:03:17.586Z,65.49
2023-11-08T14:05:44.376Z,65.41
2023-11-08T14:08:11.080Z,65.27
2023-11-08T14:10:37.906Z,65.39
2023-11-08T14:13:04.732Z,65.40
2023-11-08T14:15:31.600Z,65.53
2023-11-08T14:18:01.251Z,65.46
2023-11-08T14:20:28.281Z,65.60
2023-11-08T14:22:54.891Z,65.52
2023-11-08T14:25:24.066Z,65.38
2023-11-08T14:27:52.118Z,65.37
2023-11-08T14:30:18.673Z,65.40
2023-11-08T14:32:45.281Z,65.58
2023-11-08T14:35:13.062Z,65.57
2023-11-08T14:37:40.169Z,65.62
2023-11-08T14:40:09.009Z,65.63
2023-11-08T14:42:35.896Z,65.63
2023-11-08T14:45:03.303Z,65.65
2023-11-08T14:47:31.954Z,65.48
2023-11-08T14:50:01.871Z,65.73
2023-11-08T14:52:28.686Z,65.70
2023-11-08T14:54:57.925Z,65.62
2023-11-08T14:57:27.100Z,65.62
2023-11-08T14:59:53.904Z,65.44
2023-11-08T15:02:20.640Z,65.50
2023-11-08T15:04:47.484Z,65.51
2023-11-08T15:09:40.250Z,65.59
2023-11-08T15:10:02.420Z,65.55
2023-11-08T15:12:30.247Z,65.58
2023-11-08T15:14:57.194Z,65.65
2023-11-08T15:17:23.903Z,65.71
2023-11-08T15:19:51.122Z,65.65
2023-11-08T15:22:18.265Z,65.82
2023-11-08T15:24:50.748Z,65.77
2023-11-08T15:27:20.637Z,65.63
2023-11-08T15:29:47.572Z,65.64
2023-11-08T15:32:14.493Z,65.75
2023-11-08T15:34:41.238Z,65.79
2023-11-08T15:37:08.999Z,65.83
2023-11-08T15:39:35.942Z,65.91
2023-11-08T15:42:02.656Z,66.02
2023-11-08T15:44:29.862Z,66.01
2023-11-08T15:46:56.595Z,65.96
2023-11-08T15:49:25.237Z,65.84
2023-11-08T15:51:55.377Z,65.87
2023-11-08T15:54:22.114Z,66.00
2023-11-08T15:56:48.815Z,66.13
2023-11-08T15:59:15.854Z,65.82
2023-11-08T16:01:51.524Z,66.02
2023-11-08T16:04:18.885Z,66.01
2023-11-08T16:06:46.230Z,66.10
2023-11-08T16:09:13.276Z,66.10
2023-11-08T16:11:40.894Z,66.06
2023-11-08T16:14:08.459Z,66.03
2023-11-08T16:16:44.710Z,65.89
2023-11-08T16:19:12.211Z,65.95
2023-11-08T16:21:39.532Z,65.89
2023-11-08T16:24:08.352Z,66.07
2023-11-08T16:26:35.392Z,65.94
2023-11-08T16:29:09.548Z,65.95
2023-11-08T16:32:32.741Z,66.17
2023-11-08T16:34:36.504Z,66.13
2023-11-08T16:37:03.649Z,66.07
2023-11-08T16:39:31.193Z,66.12
2023-11-08T16:41:58.846Z,66.13
2023-11-08T16:44:26.980Z,66.22
2023-11-08T16:46:54.214Z,66.13
2023-11-08T16:49:23.247Z,66.21
2023-11-08T16:51:50.712Z,66.01
2023-11-08T16:54:18.331Z,66.03
2023-11-08T16:56:45.303Z,66.04
2023-11-08T16:59:12.105Z,66.13
2023-11-08T17:01:38.729Z,66.16
2023-11-08T17:04:05.589Z,66.19
2023-11-08T17:06:32.427Z,66.22
2023-11-08T17:08:59.107Z,66.26
2023-11-08T17:11:25.723Z,66.32
2023-11-08T17:13:55.011Z,66.26
2023-11-08T17:16:22.757Z,66.21
2023-11-08T17:18:49.723Z,66.35
2023-11-08T17:21:16.573Z,66.31
2023-11-08T17:23:46.031Z,66.37
2023-11-08T17:26:15.721Z,66.33
2023-11-08T17:28:44.640Z,66.33
2023-11-08T17:31:11.728Z,66.38
2023-11-08T17:33:41.407Z,66.21
2023-11-08T17:36:10.000Z,66.27
2023-11-08T17:38:36.602Z,66.43
2023-11-08T17:41:04.502Z,66.42
2023-11-08T17:43:32.043Z,66.37
2023-11-08T17:45:58.706Z,66.50
2023-11-08T17:48:25.840Z,66.57
2023-11-08T17:50:53.606Z,66.44
2023-11-08T17:53:20.604Z,66.40
2023-11-08T17:55:49.716Z,66.51
2023-11-08T17:58:18.166Z,66.55
2023-11-08T18:00:44.988Z,66.34
2023-11-08T18:03:11.868Z,66.67
2023-11-08T18:05:38.537Z,66.67
2023-11-08T18:08:05.634Z,66.56
2023-11-08T18:10:32.248Z,66.53
2023-11-08T18:13:00.036Z,66.71
2023-11-08T18:15:26.778Z,66.63
2023-11-08T18:17:55.219Z,66.74
2023-11-08T18:20:22.280Z,66.59
2023-11-08T18:22:53.872Z,66.54
2023-11-08T18:25:22.633Z,66.64
2023-11-08T18:27:49.783Z,66.60
2023-11-08T18:30:18.152Z,66.64
2023-11-08T18:32:45.538Z,66.75
2023-11-08T18:35:12.250Z,66.66
2023-11-08T18:37:39.012Z,66.77
2023-11-08T18:40:08.047Z,66.84
2023-11-08T18:42:40.329Z,66.80
2023-11-08T18:45:12.921Z,66.79
2023-11-08T18:47:40.441Z,66.77
2023-11-08T18:50:10.338Z,66.74
2023-11-08T18:52:37.161Z,66.87
2023-11-08T18:55:05.811Z,66.87
2023-11-08T18:57:32.698Z,66.83
2023-11-08T19:00:01.132Z,66.85
2023-11-08T19:02:28.353Z,66.94
2023-11-08T19:04:55.095Z,66.79
2023-11-08T19:07:22.348Z,66.83
2023-11-08T19:09:49.686Z,66.96
2023-11-08T19:12:16.352Z,67.05
2023-11-08T19:14:42.976Z,67.05
2023-11-08T19:17:11.003Z,67.01
2023-11-08T19:19:38.431Z,66.99
2023-11-08T19:22:05.722Z,66.99
2023-11-08T19:24:32.468Z,67.07
2023-11-08T19:26:59.373Z,67.07
2023-11-08T19:29:26.035Z,67.11
2023-11-08T19:31:52.628Z,67.12
2023-11-08T19:34:19.340Z,67.24
2023-11-08T19:36:50.712Z,67.13
2023-11-08T19:39:22.594Z,67.13
2023-11-08T19:41:50.414Z,67.25
2023-11-08T19:44:17.069Z,67.37
2023-11-08T19:46:44.827Z,67.23
2023-11-08T19:49:11.815Z,67.42
2023-11-08T19:51:38.754Z,67.31
2023-11-08T19:54:05.807Z,67.33
2023-11-08T19:56:33.755Z,67.36
2023-11-08T19:59:01.383Z,67.28
2023-11-08T20:01:31.361Z,67.38
2023-11-08T20:03:58.095Z,67.23
2023-11-08T20:06:24.785Z,67.41
2023-11-08T20:08:52.069Z,67.37
2023-11-08T20:11:18.899Z,67.35
2023-11-08T20:13:48.358Z,67.47
2023-11-08T20:16:15.263Z,67.41
2023-11-08T20:18:41.966Z,67.52
2023-11-08T20:21:10.484Z,67.48
2023-11-08T20:23:38.118Z,67.68
2023-11-08T20:26:04.847Z,67.80
2023-11-08T20:28:31.436Z,67.66
2023-11-08T20:31:03.409Z,67.45
2023-11-08T20:33:31.184Z,67.50
2023-11-08T20:36:00.810Z,67.63
2023-11-08T20:38:29.247Z,67.56
2023-11-08T20:40:56.330Z,67.60
2023-11-08T20:43:23.455Z,67.63
2023-11-08T20:45:50.139Z,67.55
2023-11-08T20:48:16.855Z,67.68
2023-11-08T20:50:48.044Z,67.69
2023-11-08T20:53:14.662Z,67.76
2023-11-08T20:55:41.361Z,67.79
2023-11-08T20:58:08.460Z,67.78
2023-11-08T21:00:35.311Z,67.64
2023-11-08T21:03:04.223Z,67.92
2023-11-08T21:05:31.399Z,67.88
2023-11-08T21:07:58.181Z,67.88
2023-11-08T21:10:25.189Z,67.82
2023-11-08T21:12:52.194Z,67.82
2023-11-08T21:15:19.064Z,67.78
2023-11-08T21:17:46.914Z,68.06
2023-11-08T21:20:15.396Z,68.03
2023-11-08T21:22:46.818Z,68.04
2023-11-08T21:25:13.922Z,68.10
2023-11-08T21:27:41.371Z,68.10
2023-11-08T21:30:09.438Z,68.05
2023-11-08T21:32:37.600Z,68.11
2023-11-08T21:35:05.017Z,68.24
2023-11-08T21:37:31.783Z,68.43
2023-11-08T21:39:58.518Z,68.39
2023-11-08T21:42:25.337Z,68.38
2023-11-08T21:44:52.199Z,68.43
2023-11-08T21:47:18.972Z,68.30
2023-11-08T21:49:45.774Z,68.25
2023-11-08T21:52:12.653Z,68.29
2023-11-08T21:54:40.627Z,68.53
2023-11-08T21:57:08.813Z,68.50
2023-11-08T21:59:35.642Z,68.40
2023-11-08T22:02:07.504Z,68.60
2023-11-08T22:04:35.895Z,68.64
2023-11-08T22:07:03.990Z,68.69
2023-11-08T22:09:30.841Z,68.74
2023-11-08T22:11:57.542Z,68.73
2023-11-08T22:14:24.261Z,68.71
2023-11-08T22:16:50.964Z,68.79
2023-11-08T22:19:17.728Z,68.76
2023-11-08T22:21:44.634Z,68.83
2023-11-08T22:24:11.633Z,68.70
2023-11-08T22:26:38.371Z,68.77
2023-11-08T22:29:06.032Z,68.88
2023-11-08T22:31:33.522Z,68.86
2023-11-08T22:34:00.345Z,68.86
2023-11-08T22:36:27.826Z,68.89
2023-11-08T22:38:55.370Z,69.00
2023-11-08T22:41:21.919Z,69.07
2023-11-08T22:43:48.440Z,69.05
2023-11-08T22:46:20.299Z,69.01
2023-11-08T22:48:47.143Z,69.06
2023-11-08T22:51:23.293Z,68.98
2023-11-08T22:53:51.150Z,69.00
2023-11-08T22:56:20.275Z,69.09
2023-11-08T22:58:48.706Z,69.26
2023-11-08T23:01:25.616Z,69.24
2023-11-08T23:03:52.379Z,69.25
2023-11-08T23:06:23.358Z,69.33
2023-11-08T23:08:49.979Z,69.23
2023-11-08T23:11:16.766Z,69.27
2023-11-08T23:13:44.265Z,69.08
2023-11-08T23:16:12.068Z,69.20
2023-11-08T23:18:38.914Z,69.22
2023-11-08T23:21:06.354Z,69.28
2023-11-08T23:23:38.775Z,69.17
2023-11-08T23:26:08.962Z,69.32
2023-11-08T23:28:36.142Z,69.29
2023-11-08T23:31:03.698Z,69.19
2023-11-08T23:33:31.200Z,69.27
2023-11-08T23:35:58.035Z,69.39
2023-11-08T23:38:24.890Z,69.39
2023-11-08T23:40:53.408Z,69.38
2023-11-08T23:43:20.070Z,69.39
2023-11-08T23:45:46.748Z,69.35
2023-11-08T23:48:13.635Z,69.36
2023-11-08T23:50:43.160Z,69.35
2023-11-08T23:53:10.351Z,69.35
2023-11-08T23:55:37.390Z,69.43
2023-11-08T23:58:04.259Z,69.42
